sensor_id;sensor_type;location;lat;lon;timestamp;pressure;altitude;pressure_sealevel;temperature;humidity
26531;BME280;14201;43.188;24.160;2024-01-07T00:00:13;98222.78;;;5.69;85.40
26531;BME280;14201;43.188;24.160;2024-01-07T00:02:41;98221.22;;;5.73;84.39
26531;BME280;14201;43.188;24.160;2024-01-07T00:05:06;98211.09;;;5.79;84.34
26531;BME280;14201;43.188;24.160;2024-01-07T00:07:31;98204.41;;;5.84;84.47
26531;BME280;14201;43.188;24.160;2024-01-07T00:09:57;98199.47;;;5.90;83.79
26531;BME280;14201;43.188;24.160;2024-01-07T00:12:22;98196.34;;;5.98;83.68
26531;BME280;14201;43.188;24.160;2024-01-07T00:14:50;98182.69;;;6.02;84.04
26531;BME280;14201;43.188;24.160;2024-01-07T00:17:15;98181.78;;;6.00;83.24
26531;BME280;14201;43.188;24.160;2024-01-07T00:19:40;98174.63;;;5.94;83.14
26531;BME280;14201;43.188;24.160;2024-01-07T00:22:06;98160.00;;;5.95;84.07
26531;BME280;14201;43.188;24.160;2024-01-07T00:24:32;98175.75;;;6.01;84.32
26531;BME280;14201;43.188;24.160;2024-01-07T00:26:57;98173.44;;;6.07;84.80
26531;BME280;14201;43.188;24.160;2024-01-07T00:29:22;98174.38;;;6.10;84.09
26531;BME280;14201;43.188;24.160;2024-01-07T00:31:48;98175.59;;;5.96;82.14
26531;BME280;14201;43.188;24.160;2024-01-07T00:34:13;98169.47;;;5.94;82.69
26531;BME280;14201;43.188;24.160;2024-01-07T00:36:39;98173.19;;;6.01;83.43
26531;BME280;14201;43.188;24.160;2024-01-07T00:39:04;98170.56;;;5.99;82.27
26531;BME280;14201;43.188;24.160;2024-01-07T00:41:30;98171.25;;;5.72;82.62
26531;BME280;14201;43.188;24.160;2024-01-07T00:43:58;98173.31;;;5.36;83.48
26531;BME280;14201;43.188;24.160;2024-01-07T00:46:23;98173.66;;;5.23;84.67
26531;BME280;14201;43.188;24.160;2024-01-07T00:48:48;98164.88;;;5.18;86.95
26531;BME280;14201;43.188;24.160;2024-01-07T00:51:14;98150.44;;;5.23;87.58
26531;BME280;14201;43.188;24.160;2024-01-07T00:53:39;98145.78;;;5.35;91.27
26531;BME280;14201;43.188;24.160;2024-01-07T00:56:05;98143.41;;;5.41;92.43
26531;BME280;14201;43.188;24.160;2024-01-07T00:58:31;98153.13;;;5.48;93.32
26531;BME280;14201;43.188;24.160;2024-01-07T01:00:56;98139.69;;;5.57;94.08
26531;BME280;14201;43.188;24.160;2024-01-07T01:03:21;98134.63;;;5.60;93.09
26531;BME280;14201;43.188;24.160;2024-01-07T01:05:47;98145.81;;;5.59;94.35
26531;BME280;14201;43.188;24.160;2024-01-07T01:08:12;98141.72;;;5.66;94.23
26531;BME280;14201;43.188;24.160;2024-01-07T01:10:38;98147.38;;;5.56;94.65
26531;BME280;14201;43.188;24.160;2024-01-07T01:13:03;98122.28;;;5.51;93.17
26531;BME280;14201;43.188;24.160;2024-01-07T01:15:29;98118.88;;;5.52;92.67
26531;BME280;14201;43.188;24.160;2024-01-07T01:17:54;98113.00;;;5.57;92.69
26531;BME280;14201;43.188;24.160;2024-01-07T01:20:19;98109.50;;;5.55;93.03
26531;BME280;14201;43.188;24.160;2024-01-07T01:22:45;98095.09;;;5.61;92.25
26531;BME280;14201;43.188;24.160;2024-01-07T01:25:10;98092.91;;;5.72;90.83
26531;BME280;14201;43.188;24.160;2024-01-07T01:27:36;98094.50;;;5.68;91.36
26531;BME280;14201;43.188;24.160;2024-01-07T01:30:02;98095.31;;;5.67;91.51
26531;BME280;14201;43.188;24.160;2024-01-07T01:32:27;98101.03;;;5.59;91.07
26531;BME280;14201;43.188;24.160;2024-01-07T01:34:52;98090.00;;;5.63;91.19
26531;BME280;14201;43.188;24.160;2024-01-07T01:37:18;98094.44;;;5.67;90.15
26531;BME280;14201;43.188;24.160;2024-01-07T01:39:43;98089.41;;;5.70;91.33
26531;BME280;14201;43.188;24.160;2024-01-07T01:42:09;98092.28;;;5.79;91.35
26531;BME280;14201;43.188;24.160;2024-01-07T01:44:34;98097.63;;;5.84;91.90
26531;BME280;14201;43.188;24.160;2024-01-07T01:46:59;98081.56;;;5.92;91.34
26531;BME280;14201;43.188;24.160;2024-01-07T01:49:26;98067.34;;;5.80;91.71
26531;BME280;14201;43.188;24.160;2024-01-07T01:51:51;98059.81;;;5.86;92.06
26531;BME280;14201;43.188;24.160;2024-01-07T01:54:18;98062.34;;;5.84;92.23
26531;BME280;14201;43.188;24.160;2024-01-07T01:56:43;98047.16;;;5.94;91.86
26531;BME280;14201;43.188;24.160;2024-01-07T01:59:09;98055.09;;;5.98;91.42
26531;BME280;14201;43.188;24.160;2024-01-07T02:01:36;98051.03;;;6.05;90.44
26531;BME280;14201;43.188;24.160;2024-01-07T02:04:01;98052.56;;;6.00;89.86
26531;BME280;14201;43.188;24.160;2024-01-07T02:06:26;98053.28;;;5.96;90.35
26531;BME280;14201;43.188;24.160;2024-01-07T02:08:52;98067.09;;;5.96;90.27
26531;BME280;14201;43.188;24.160;2024-01-07T02:11:18;98061.13;;;5.99;90.36
26531;BME280;14201;43.188;24.160;2024-01-07T02:13:44;98055.03;;;5.97;90.45
26531;BME280;14201;43.188;24.160;2024-01-07T02:16:09;98048.13;;;5.96;90.24
26531;BME280;14201;43.188;24.160;2024-01-07T02:18:35;98040.53;;;6.00;89.00
26531;BME280;14201;43.188;24.160;2024-01-07T02:21:00;98029.03;;;5.92;89.22
26531;BME280;14201;43.188;24.160;2024-01-07T02:23:26;98019.72;;;5.96;88.60
26531;BME280;14201;43.188;24.160;2024-01-07T02:25:51;98031.41;;;5.86;89.45
26531;BME280;14201;43.188;24.160;2024-01-07T02:28:17;98027.03;;;5.85;89.52
26531;BME280;14201;43.188;24.160;2024-01-07T02:30:42;98024.31;;;5.80;90.11
26531;BME280;14201;43.188;24.160;2024-01-07T02:33:07;98019.16;;;5.80;90.29
26531;BME280;14201;43.188;24.160;2024-01-07T02:35:33;98012.47;;;5.87;88.69
26531;BME280;14201;43.188;24.160;2024-01-07T02:37:58;98005.63;;;5.87;88.03
26531;BME280;14201;43.188;24.160;2024-01-07T02:40:24;98011.00;;;5.69;87.65
26531;BME280;14201;43.188;24.160;2024-01-07T02:42:49;98001.03;;;5.55;89.44
26531;BME280;14201;43.188;24.160;2024-01-07T02:45:14;97988.81;;;5.50;89.82
26531;BME280;14201;43.188;24.160;2024-01-07T02:47:40;97973.13;;;5.44;91.72
26531;BME280;14201;43.188;24.160;2024-01-07T02:50:05;97982.78;;;5.50;91.70
26531;BME280;14201;43.188;24.160;2024-01-07T02:52:31;97976.19;;;5.58;91.76
26531;BME280;14201;43.188;24.160;2024-01-07T02:54:56;97954.88;;;5.64;91.96
26531;BME280;14201;43.188;24.160;2024-01-07T02:57:22;97984.19;;;5.66;91.27
26531;BME280;14201;43.188;24.160;2024-01-07T02:59:47;97988.75;;;5.47;90.96
26531;BME280;14201;43.188;24.160;2024-01-07T03:02:13;97994.00;;;5.50;91.80
26531;BME280;14201;43.188;24.160;2024-01-07T03:04:38;97994.09;;;5.53;91.38
26531;BME280;14201;43.188;24.160;2024-01-07T03:07:04;97977.84;;;5.56;92.47
26531;BME280;14201;43.188;24.160;2024-01-07T03:09:29;97990.72;;;5.55;92.61
26531;BME280;14201;43.188;24.160;2024-01-07T03:11:54;97988.13;;;5.55;92.09
26531;BME280;14201;43.188;24.160;2024-01-07T03:14:20;97984.72;;;5.56;92.13
26531;BME280;14201;43.188;24.160;2024-01-07T03:16:46;97985.00;;;5.39;93.41
26531;BME280;14201;43.188;24.160;2024-01-07T03:19:11;97963.13;;;5.53;93.54
26531;BME280;14201;43.188;24.160;2024-01-07T03:21:37;97963.28;;;5.58;92.78
26531;BME280;14201;43.188;24.160;2024-01-07T03:24:03;97954.44;;;5.51;93.01
26531;BME280;14201;43.188;24.160;2024-01-07T03:26:31;97935.78;;;5.59;93.50
26531;BME280;14201;43.188;24.160;2024-01-07T03:28:59;97942.13;;;5.68;92.70
26531;BME280;14201;43.188;24.160;2024-01-07T03:31:26;97939.75;;;5.75;92.76
26531;BME280;14201;43.188;24.160;2024-01-07T03:33:51;97950.16;;;5.78;92.27
26531;BME280;14201;43.188;24.160;2024-01-07T03:36:16;97950.88;;;5.73;91.76
26531;BME280;14201;43.188;24.160;2024-01-07T03:38:42;97933.91;;;5.55;92.32
26531;BME280;14201;43.188;24.160;2024-01-07T03:41:08;97936.50;;;5.55;92.88
26531;BME280;14201;43.188;24.160;2024-01-07T03:43:33;97923.06;;;5.65;92.53
26531;BME280;14201;43.188;24.160;2024-01-07T03:45:59;97923.19;;;5.69;91.52
26531;BME280;14201;43.188;24.160;2024-01-07T03:48:25;97925.66;;;5.65;91.91
26531;BME280;14201;43.188;24.160;2024-01-07T03:50:51;97914.38;;;5.63;90.75
26531;BME280;14201;43.188;24.160;2024-01-07T03:53:16;97913.34;;;5.58;91.27
26531;BME280;14201;43.188;24.160;2024-01-07T03:55:42;97909.44;;;5.43;91.91
26531;BME280;14201;43.188;24.160;2024-01-07T03:58:07;97918.19;;;5.48;91.39
26531;BME280;14201;43.188;24.160;2024-01-07T04:00:33;97899.31;;;5.49;91.66
26531;BME280;14201;43.188;24.160;2024-01-07T04:02:58;97907.19;;;5.54;91.62
26531;BME280;14201;43.188;24.160;2024-01-07T04:05:24;97908.09;;;5.55;90.82
26531;BME280;14201;43.188;24.160;2024-01-07T04:07:49;97897.59;;;5.50;91.15
26531;BME280;14201;43.188;24.160;2024-01-07T04:10:18;97885.00;;;5.33;92.02
26531;BME280;14201;43.188;24.160;2024-01-07T04:12:44;97900.03;;;5.45;91.29
26531;BME280;14201;43.188;24.160;2024-01-07T04:15:10;97893.94;;;5.43;91.82
26531;BME280;14201;43.188;24.160;2024-01-07T04:17:36;97894.03;;;5.46;91.59
26531;BME280;14201;43.188;24.160;2024-01-07T04:20:01;97882.56;;;5.38;91.43
26531;BME280;14201;43.188;24.160;2024-01-07T04:22:26;97871.19;;;5.33;92.03
26531;BME280;14201;43.188;24.160;2024-01-07T04:24:52;97874.09;;;5.42;92.23
26531;BME280;14201;43.188;24.160;2024-01-07T04:27:18;97873.38;;;5.46;92.76
26531;BME280;14201;43.188;24.160;2024-01-07T04:29:43;97875.19;;;5.49;92.54
26531;BME280;14201;43.188;24.160;2024-01-07T04:32:08;97863.41;;;5.57;93.03
26531;BME280;14201;43.188;24.160;2024-01-07T04:34:35;97869.50;;;5.59;93.83
26531;BME280;14201;43.188;24.160;2024-01-07T04:37:00;97858.34;;;5.60;93.28
26531;BME280;14201;43.188;24.160;2024-01-07T04:39:25;97869.94;;;5.73;92.89
26531;BME280;14201;43.188;24.160;2024-01-07T04:41:51;97869.81;;;5.68;93.08
26531;BME280;14201;43.188;24.160;2024-01-07T04:44:16;97879.25;;;5.68;92.52
26531;BME280;14201;43.188;24.160;2024-01-07T04:46:42;97864.47;;;5.62;92.72
26531;BME280;14201;43.188;24.160;2024-01-07T04:49:07;97854.00;;;5.59;93.17
26531;BME280;14201;43.188;24.160;2024-01-07T04:51:33;97851.50;;;5.61;93.68
26531;BME280;14201;43.188;24.160;2024-01-07T04:53:58;97842.16;;;5.66;93.93
26531;BME280;14201;43.188;24.160;2024-01-07T04:56:23;97830.97;;;5.65;93.30
26531;BME280;14201;43.188;24.160;2024-01-07T04:58:49;97829.25;;;5.66;93.04
26531;BME280;14201;43.188;24.160;2024-01-07T05:01:14;97830.09;;;5.65;92.90
26531;BME280;14201;43.188;24.160;2024-01-07T05:03:40;97834.88;;;5.27;94.13
26531;BME280;14201;43.188;24.160;2024-01-07T05:06:07;97837.22;;;5.46;94.85
26531;BME280;14201;43.188;24.160;2024-01-07T05:08:33;97837.53;;;5.56;94.66
26531;BME280;14201;43.188;24.160;2024-01-07T05:10:58;97822.16;;;5.59;94.49
26531;BME280;14201;43.188;24.160;2024-01-07T05:13:24;97817.81;;;5.58;94.43
26531;BME280;14201;43.188;24.160;2024-01-07T05:15:49;97809.28;;;5.60;94.03
26531;BME280;14201;43.188;24.160;2024-01-07T05:18:20;97810.25;;;5.64;94.54
26531;BME280;14201;43.188;24.160;2024-01-07T05:20:45;97810.91;;;5.57;94.22
26531;BME280;14201;43.188;24.160;2024-01-07T05:23:11;97801.16;;;5.48;95.16
26531;BME280;14201;43.188;24.160;2024-01-07T05:25:36;97810.84;;;5.55;94.80
26531;BME280;14201;43.188;24.160;2024-01-07T05:28:02;97808.31;;;5.57;94.76
26531;BME280;14201;43.188;24.160;2024-01-07T05:30:27;97824.69;;;5.57;93.92
26531;BME280;14201;43.188;24.160;2024-01-07T05:32:53;97828.38;;;5.12;96.44
26531;BME280;14201;43.188;24.160;2024-01-07T05:35:18;97831.03;;;5.16;97.25
26531;BME280;14201;43.188;24.160;2024-01-07T05:37:44;97833.13;;;5.26;96.69
26531;BME280;14201;43.188;24.160;2024-01-07T05:40:09;97836.63;;;5.28;97.36
26531;BME280;14201;43.188;24.160;2024-01-07T05:42:35;97825.47;;;5.29;97.86
26531;BME280;14201;43.188;24.160;2024-01-07T05:45:00;97833.38;;;5.33;97.64
26531;BME280;14201;43.188;24.160;2024-01-07T05:47:27;97816.19;;;5.34;97.85
26531;BME280;14201;43.188;24.160;2024-01-07T05:49:53;97798.38;;;5.42;97.63
26531;BME280;14201;43.188;24.160;2024-01-07T05:52:19;97787.38;;;5.47;97.58
26531;BME280;14201;43.188;24.160;2024-01-07T05:54:44;97767.84;;;5.56;98.14
26531;BME280;14201;43.188;24.160;2024-01-07T05:57:10;97782.69;;;5.63;97.71
26531;BME280;14201;43.188;24.160;2024-01-07T05:59:36;97789.84;;;5.71;96.80
26531;BME280;14201;43.188;24.160;2024-01-07T06:02:01;97791.06;;;5.83;96.24
26531;BME280;14201;43.188;24.160;2024-01-07T06:04:27;97779.75;;;5.79;96.51
26531;BME280;14201;43.188;24.160;2024-01-07T06:06:52;97798.75;;;5.81;96.65
26531;BME280;14201;43.188;24.160;2024-01-07T06:09:17;97793.41;;;5.75;96.27
26531;BME280;14201;43.188;24.160;2024-01-07T06:11:43;97808.47;;;5.61;97.30
26531;BME280;14201;43.188;24.160;2024-01-07T06:14:09;97809.69;;;5.72;96.63
26531;BME280;14201;43.188;24.160;2024-01-07T06:16:34;97807.19;;;5.76;96.51
26531;BME280;14201;43.188;24.160;2024-01-07T06:18:59;97812.56;;;5.82;96.42
26531;BME280;14201;43.188;24.160;2024-01-07T06:21:25;97803.91;;;5.81;95.72
26531;BME280;14201;43.188;24.160;2024-01-07T06:23:50;97816.94;;;5.84;95.75
26531;BME280;14201;43.188;24.160;2024-01-07T06:26:15;97823.81;;;5.84;95.45
26531;BME280;14201;43.188;24.160;2024-01-07T06:28:41;97836.56;;;5.79;95.58
26531;BME280;14201;43.188;24.160;2024-01-07T06:31:06;97831.22;;;5.73;96.11
26531;BME280;14201;43.188;24.160;2024-01-07T06:33:32;97836.50;;;5.76;96.90
26531;BME280;14201;43.188;24.160;2024-01-07T06:35:57;97837.47;;;5.80;97.13
26531;BME280;14201;43.188;24.160;2024-01-07T06:38:23;97829.00;;;5.85;97.08
26531;BME280;14201;43.188;24.160;2024-01-07T06:40:49;97836.88;;;5.88;97.02
26531;BME280;14201;43.188;24.160;2024-01-07T06:43:14;97846.69;;;5.99;96.63
26531;BME280;14201;43.188;24.160;2024-01-07T06:45:40;97842.94;;;5.90;95.26
26531;BME280;14201;43.188;24.160;2024-01-07T06:48:05;97841.09;;;5.86;95.62
26531;BME280;14201;43.188;24.160;2024-01-07T06:50:31;97853.22;;;5.89;96.60
26531;BME280;14201;43.188;24.160;2024-01-07T06:52:56;97857.72;;;5.95;96.49
26531;BME280;14201;43.188;24.160;2024-01-07T06:55:22;97870.84;;;6.01;96.48
26531;BME280;14201;43.188;24.160;2024-01-07T06:57:47;97889.56;;;5.94;96.37
26531;BME280;14201;43.188;24.160;2024-01-07T07:00:12;97893.81;;;5.66;98.52
26531;BME280;14201;43.188;24.160;2024-01-07T07:02:39;97889.16;;;5.81;98.35
26531;BME280;14201;43.188;24.160;2024-01-07T07:05:04;97879.22;;;5.94;98.12
26531;BME280;14201;43.188;24.160;2024-01-07T07:07:30;97880.97;;;5.95;98.99
26531;BME280;14201;43.188;24.160;2024-01-07T07:09:55;97887.38;;;6.06;97.59
26531;BME280;14201;43.188;24.160;2024-01-07T07:12:20;97884.34;;;5.92;98.59
26531;BME280;14201;43.188;24.160;2024-01-07T07:14:46;97874.28;;;6.00;98.03
26531;BME280;14201;43.188;24.160;2024-01-07T07:17:12;97873.03;;;5.88;98.00
26531;BME280;14201;43.188;24.160;2024-01-07T07:19:38;97861.91;;;5.91;97.99
26531;BME280;14201;43.188;24.160;2024-01-07T07:22:03;97861.03;;;5.90;97.89
26531;BME280;14201;43.188;24.160;2024-01-07T07:24:29;97862.81;;;5.91;97.62
26531;BME280;14201;43.188;24.160;2024-01-07T07:26:55;97855.97;;;5.94;97.99
26531;BME280;14201;43.188;24.160;2024-01-07T07:29:20;97851.31;;;5.83;98.97
26531;BME280;14201;43.188;24.160;2024-01-07T07:31:45;97842.63;;;5.80;99.41
26531;BME280;14201;43.188;24.160;2024-01-07T07:34:12;97834.22;;;5.87;100.00
26531;BME280;14201;43.188;24.160;2024-01-07T07:36:37;97832.63;;;5.90;100.00
26531;BME280;14201;43.188;24.160;2024-01-07T07:39:05;97826.84;;;5.98;100.00
26531;BME280;14201;43.188;24.160;2024-01-07T07:41:30;97810.09;;;6.14;100.00
26531;BME280;14201;43.188;24.160;2024-01-07T07:43:55;97817.16;;;6.19;99.87
26531;BME280;14201;43.188;24.160;2024-01-07T07:46:21;97805.81;;;6.14;99.74
26531;BME280;14201;43.188;24.160;2024-01-07T07:48:46;97836.88;;;6.16;100.00
26531;BME280;14201;43.188;24.160;2024-01-07T07:51:12;97869.53;;;5.86;100.00
26531;BME280;14201;43.188;24.160;2024-01-07T07:53:40;97865.81;;;5.51;100.00
26531;BME280;14201;43.188;24.160;2024-01-07T07:56:06;97854.16;;;5.64;100.00
26531;BME280;14201;43.188;24.160;2024-01-07T07:58:31;97860.53;;;5.48;100.00
26531;BME280;14201;43.188;24.160;2024-01-07T08:00:57;97839.59;;;5.66;100.00
26531;BME280;14201;43.188;24.160;2024-01-07T08:03:23;97862.81;;;5.64;100.00
26531;BME280;14201;43.188;24.160;2024-01-07T08:05:48;97860.22;;;5.64;100.00
26531;BME280;14201;43.188;24.160;2024-01-07T08:08:15;97848.66;;;5.80;100.00
26531;BME280;14201;43.188;24.160;2024-01-07T08:10:42;97866.44;;;5.71;100.00
26531;BME280;14201;43.188;24.160;2024-01-07T08:13:08;97860.22;;;5.91;100.00
26531;BME280;14201;43.188;24.160;2024-01-07T08:15:34;97843.34;;;6.03;100.00
26531;BME280;14201;43.188;24.160;2024-01-07T08:17:59;97867.19;;;5.67;100.00
26531;BME280;14201;43.188;24.160;2024-01-07T08:20:25;97828.38;;;5.92;100.00
26531;BME280;14201;43.188;24.160;2024-01-07T08:22:50;97867.88;;;5.88;100.00
26531;BME280;14201;43.188;24.160;2024-01-07T08:25:16;97830.25;;;5.97;100.00
26531;BME280;14201;43.188;24.160;2024-01-07T08:27:41;97858.03;;;6.04;100.00
26531;BME280;14201;43.188;24.160;2024-01-07T08:30:07;97845.06;;;6.02;100.00
26531;BME280;14201;43.188;24.160;2024-01-07T08:32:34;97837.94;;;6.22;100.00
26531;BME280;14201;43.188;24.160;2024-01-07T08:35:00;97830.31;;;6.27;100.00
26531;BME280;14201;43.188;24.160;2024-01-07T08:37:25;97834.97;;;6.39;100.00
26531;BME280;14201;43.188;24.160;2024-01-07T08:39:51;97852.97;;;6.36;100.00
26531;BME280;14201;43.188;24.160;2024-01-07T08:42:16;97828.81;;;6.35;100.00
26531;BME280;14201;43.188;24.160;2024-01-07T08:44:42;97834.28;;;6.44;100.00
26531;BME280;14201;43.188;24.160;2024-01-07T08:47:07;97821.56;;;6.52;100.00
26531;BME280;14201;43.188;24.160;2024-01-07T08:49:33;97804.38;;;6.54;100.00
26531;BME280;14201;43.188;24.160;2024-01-07T08:51:58;97806.31;;;6.61;100.00
26531;BME280;14201;43.188;24.160;2024-01-07T08:54:24;97820.00;;;6.57;100.00
26531;BME280;14201;43.188;24.160;2024-01-07T08:56:49;97842.25;;;6.23;100.00
26531;BME280;14201;43.188;24.160;2024-01-07T08:59:15;97834.50;;;6.23;100.00
26531;BME280;14201;43.188;24.160;2024-01-07T09:01:40;97817.84;;;6.42;100.00
26531;BME280;14201;43.188;24.160;2024-01-07T09:04:05;97812.97;;;6.53;100.00
26531;BME280;14201;43.188;24.160;2024-01-07T09:06:31;97802.06;;;6.63;100.00
26531;BME280;14201;43.188;24.160;2024-01-07T09:08:57;97811.78;;;6.72;100.00
26531;BME280;14201;43.188;24.160;2024-01-07T09:11:22;97815.47;;;6.82;100.00
26531;BME280;14201;43.188;24.160;2024-01-07T09:13:49;97814.13;;;6.95;100.00
26531;BME280;14201;43.188;24.160;2024-01-07T09:16:15;97805.63;;;7.00;100.00
26531;BME280;14201;43.188;24.160;2024-01-07T09:18:41;97801.88;;;6.89;100.00
26531;BME280;14201;43.188;24.160;2024-01-07T09:21:06;97804.38;;;6.86;100.00
26531;BME280;14201;43.188;24.160;2024-01-07T09:23:32;97802.69;;;6.88;100.00
26531;BME280;14201;43.188;24.160;2024-01-07T09:25:59;97791.69;;;6.95;100.00
26531;BME280;14201;43.188;24.160;2024-01-07T09:28:24;97786.66;;;7.01;100.00
26531;BME280;14201;43.188;24.160;2024-01-07T09:30:49;97798.03;;;7.06;100.00
26531;BME280;14201;43.188;24.160;2024-01-07T09:33:15;97800.41;;;6.99;100.00
26531;BME280;14201;43.188;24.160;2024-01-07T09:35:41;97797.56;;;6.89;100.00
26531;BME280;14201;43.188;24.160;2024-01-07T09:38:06;97802.19;;;7.01;100.00
26531;BME280;14201;43.188;24.160;2024-01-07T09:40:32;97799.09;;;7.15;100.00
26531;BME280;14201;43.188;24.160;2024-01-07T09:42:57;97806.16;;;7.20;100.00
26531;BME280;14201;43.188;24.160;2024-01-07T09:45:24;97809.88;;;7.32;100.00
26531;BME280;14201;43.188;24.160;2024-01-07T09:47:50;97798.91;;;7.42;100.00
26531;BME280;14201;43.188;24.160;2024-01-07T09:50:16;97804.63;;;7.28;100.00
26531;BME280;14201;43.188;24.160;2024-01-07T09:52:42;97809.22;;;7.39;100.00
26531;BME280;14201;43.188;24.160;2024-01-07T09:55:08;97806.25;;;7.58;100.00
26531;BME280;14201;43.188;24.160;2024-01-07T09:57:34;97802.97;;;7.67;98.94
26531;BME280;14201;43.188;24.160;2024-01-07T10:00:00;97805.78;;;7.76;98.54
26531;BME280;14201;43.188;24.160;2024-01-07T10:02:26;97808.59;;;7.87;96.84
26531;BME280;14201;43.188;24.160;2024-01-07T10:04:51;97806.19;;;7.93;97.62
26531;BME280;14201;43.188;24.160;2024-01-07T10:07:17;97809.31;;;8.18;98.96
26531;BME280;14201;43.188;24.160;2024-01-07T10:09:42;97803.69;;;8.39;97.15
26531;BME280;14201;43.188;24.160;2024-01-07T10:12:08;97793.56;;;8.48;97.35
26531;BME280;14201;43.188;24.160;2024-01-07T10:14:35;97800.78;;;8.64;96.86
26531;BME280;14201;43.188;24.160;2024-01-07T10:17:00;97802.91;;;8.82;94.92
26531;BME280;14201;43.188;24.160;2024-01-07T10:19:26;97803.16;;;8.96;93.65
26531;BME280;14201;43.188;24.160;2024-01-07T10:22:04;97799.16;;;9.15;92.49
26531;BME280;14201;43.188;24.160;2024-01-07T10:24:38;97806.44;;;9.36;92.20
26531;BME280;14201;43.188;24.160;2024-01-07T10:27:05;97809.25;;;9.49;90.17
26531;BME280;14201;43.188;24.160;2024-01-07T10:29:31;97780.75;;;9.53;87.25
26531;BME280;14201;43.188;24.160;2024-01-07T10:32:00;97796.56;;;9.67;86.06
26531;BME280;14201;43.188;24.160;2024-01-07T10:34:35;97793.94;;;9.67;86.44
26531;BME280;14201;43.188;24.160;2024-01-07T10:37:01;97789.69;;;9.71;86.63
26531;BME280;14201;43.188;24.160;2024-01-07T10:39:27;97793.19;;;9.73;85.67
26531;BME280;14201;43.188;24.160;2024-01-07T10:41:54;97793.25;;;9.79;85.87
26531;BME280;14201;43.188;24.160;2024-01-07T10:44:23;97782.09;;;9.84;85.82
26531;BME280;14201;43.188;24.160;2024-01-07T10:46:48;97786.50;;;9.90;85.47
26531;BME280;14201;43.188;24.160;2024-01-07T10:49:19;97804.75;;;9.92;85.75
26531;BME280;14201;43.188;24.160;2024-01-07T10:54:24;97794.50;;;10.04;86.36
26531;BME280;14201;43.188;24.160;2024-01-07T10:56:58;97787.59;;;10.06;88.13
26531;BME280;14201;43.188;24.160;2024-01-07T10:59:24;97785.91;;;10.08;85.95
26531;BME280;14201;43.188;24.160;2024-01-07T11:01:51;97780.75;;;10.11;85.76
26531;BME280;14201;43.188;24.160;2024-01-07T11:04:31;97772.25;;;10.24;87.44
26531;BME280;14201;43.188;24.160;2024-01-07T11:07:05;97775.00;;;10.32;84.86
26531;BME280;14201;43.188;24.160;2024-01-07T11:12:24;97769.00;;;10.38;84.36
26531;BME280;14201;43.188;24.160;2024-01-07T11:14:50;97764.25;;;10.09;85.91
26531;BME280;14201;43.188;24.160;2024-01-07T11:20:05;97761.13;;;10.35;86.25
26531;BME280;14201;43.188;24.160;2024-01-07T11:22:31;97768.75;;;10.22;87.34
26531;BME280;14201;43.188;24.160;2024-01-07T11:25:00;97756.69;;;10.28;88.03
26531;BME280;14201;43.188;24.160;2024-01-07T11:27:29;97752.38;;;10.30;86.46
26531;BME280;14201;43.188;24.160;2024-01-07T11:30:05;97754.34;;;10.48;87.16
26531;BME280;14201;43.188;24.160;2024-01-07T11:32:33;97760.47;;;10.51;86.52
26531;BME280;14201;43.188;24.160;2024-01-07T11:35:00;97752.34;;;10.28;86.96
26531;BME280;14201;43.188;24.160;2024-01-07T11:37:27;97759.41;;;10.34;87.76
26531;BME280;14201;43.188;24.160;2024-01-07T11:39:56;97757.75;;;10.42;88.30
26531;BME280;14201;43.188;24.160;2024-01-07T11:42:25;97766.66;;;10.59;90.02
26531;BME280;14201;43.188;24.160;2024-01-07T11:44:52;97762.44;;;10.74;90.35
26531;BME280;14201;43.188;24.160;2024-01-07T11:47:20;97766.09;;;10.91;89.36
26531;BME280;14201;43.188;24.160;2024-01-07T11:49:46;97764.59;;;11.13;87.23
26531;BME280;14201;43.188;24.160;2024-01-07T11:52:12;97766.41;;;11.22;85.87
26531;BME280;14201;43.188;24.160;2024-01-07T11:54:39;97765.44;;;11.11;84.48
26531;BME280;14201;43.188;24.160;2024-01-07T11:57:06;97754.78;;;10.86;84.49
26531;BME280;14201;43.188;24.160;2024-01-07T11:59:35;97766.91;;;10.86;84.68
26531;BME280;14201;43.188;24.160;2024-01-07T12:02:01;97766.81;;;10.75;85.69
26531;BME280;14201;43.188;24.160;2024-01-07T12:04:33;97756.44;;;10.79;84.84
26531;BME280;14201;43.188;24.160;2024-01-07T12:06:59;97749.41;;;10.71;85.56
26531;BME280;14201;43.188;24.160;2024-01-07T12:09:25;97754.81;;;10.88;86.42
26531;BME280;14201;43.188;24.160;2024-01-07T12:11:52;97746.13;;;10.89;86.00
26531;BME280;14201;43.188;24.160;2024-01-07T12:14:18;97749.50;;;10.81;84.82
26531;BME280;14201;43.188;24.160;2024-01-07T12:16:45;97746.94;;;10.83;86.04
26531;BME280;14201;43.188;24.160;2024-01-07T12:19:11;97744.38;;;10.89;87.32
26531;BME280;14201;43.188;24.160;2024-01-07T12:21:37;97757.34;;;10.83;87.43
26531;BME280;14201;43.188;24.160;2024-01-07T12:24:04;97763.50;;;10.88;87.01
26531;BME280;14201;43.188;24.160;2024-01-07T12:26:30;97761.78;;;10.93;86.53
26531;BME280;14201;43.188;24.160;2024-01-07T12:28:59;97760.91;;;10.90;87.12
26531;BME280;14201;43.188;24.160;2024-01-07T12:31:32;97747.00;;;10.89;87.73
26531;BME280;14201;43.188;24.160;2024-01-07T12:33:59;97768.66;;;10.85;88.69
26531;BME280;14201;43.188;24.160;2024-01-07T12:36:25;97761.84;;;10.98;88.23
26531;BME280;14201;43.188;24.160;2024-01-07T12:38:52;97767.03;;;10.96;87.31
26531;BME280;14201;43.188;24.160;2024-01-07T12:41:20;97767.00;;;10.93;88.24
26531;BME280;14201;43.188;24.160;2024-01-07T12:43:46;97762.91;;;11.20;88.29
26531;BME280;14201;43.188;24.160;2024-01-07T12:46:11;97759.59;;;11.38;86.68
26531;BME280;14201;43.188;24.160;2024-01-07T12:48:37;97759.63;;;11.39;85.03
26531;BME280;14201;43.188;24.160;2024-01-07T12:51:03;97769.22;;;11.42;84.35
26531;BME280;14201;43.188;24.160;2024-01-07T12:53:28;97775.28;;;11.42;84.79
26531;BME280;14201;43.188;24.160;2024-01-07T12:55:54;97781.34;;;11.38;85.07
26531;BME280;14201;43.188;24.160;2024-01-07T12:58:20;97784.66;;;11.23;85.19